sensor_id;sensor_type;location;lat;lon;timestamp;P1;durP1;ratioP1;P2;durP2;ratioP2
20743;SDS011;56303;52.160;-0.428;2023-02-12T00:01:22;10.77;;;9.60;;
20743;SDS011;56303;52.160;-0.428;2023-02-12T00:03:50;9.13;;;8.13;;
20743;SDS011;56303;52.160;-0.428;2023-02-12T00:06:17;9.77;;;8.20;;
20743;SDS011;56303;52.160;-0.428;2023-02-12T00:08:47;9.00;;;8.10;;
20743;SDS011;56303;52.160;-0.428;2023-02-12T00:11:16;9.17;;;8.13;;
20743;SDS011;56303;52.160;-0.428;2023-02-12T00:13:45;10.53;;;8.77;;
20743;SDS011;56303;52.160;-0.428;2023-02-12T00:16:15;10.40;;;9.17;;
20743;SDS011;56303;52.160;-0.428;2023-02-12T00:18:44;9.53;;;8.63;;
20743;SDS011;56303;52.160;-0.428;2023-02-12T00:21:12;10.13;;;8.13;;
20743;SDS011;56303;52.160;-0.428;2023-02-12T00:23:39;10.60;;;8.73;;
20743;SDS011;56303;52.160;-0.428;2023-02-12T00:26:08;10.00;;;8.37;;
20743;SDS011;56303;52.160;-0.428;2023-02-12T00:28:37;10.03;;;9.03;;
20743;SDS011;56303;52.160;-0.428;2023-02-12T00:31:05;9.20;;;8.20;;
20743;SDS011;56303;52.160;-0.428;2023-02-12T00:33:37;9.93;;;8.50;;
20743;SDS011;56303;52.160;-0.428;2023-02-12T00:36:05;10.53;;;9.13;;
20743;SDS011;56303;52.160;-0.428;2023-02-12T00:38:33;9.83;;;8.83;;
20743;SDS011;56303;52.160;-0.428;2023-02-12T00:41:00;9.97;;;8.30;;
20743;SDS011;56303;52.160;-0.428;2023-02-12T00:43:27;9.53;;;8.17;;
20743;SDS011;56303;52.160;-0.428;2023-02-12T00:45:53;10.33;;;8.77;;
20743;SDS011;56303;52.160;-0.428;2023-02-12T00:48:21;9.77;;;7.80;;
20743;SDS011;56303;52.160;-0.428;2023-02-12T00:50:48;9.37;;;8.40;;
20743;SDS011;56303;52.160;-0.428;2023-02-12T00:53:16;10.30;;;8.70;;
20743;SDS011;56303;52.160;-0.428;2023-02-12T00:55:43;9.43;;;8.33;;
20743;SDS011;56303;52.160;-0.428;2023-02-12T00:58:10;12.57;;;8.97;;
20743;SDS011;56303;52.160;-0.428;2023-02-12T01:00:37;9.90;;;8.90;;
20743;SDS011;56303;52.160;-0.428;2023-02-12T01:03:04;9.87;;;8.97;;
20743;SDS011;56303;52.160;-0.428;2023-02-12T01:05:31;10.00;;;9.00;;
20743;SDS011;56303;52.160;-0.428;2023-02-12T01:07:58;8.90;;;8.00;;
20743;SDS011;56303;52.160;-0.428;2023-02-12T01:10:25;11.43;;;9.77;;
20743;SDS011;56303;52.160;-0.428;2023-02-12T01:12:53;11.17;;;9.30;;
20743;SDS011;56303;52.160;-0.428;2023-02-12T01:15:20;10.93;;;8.87;;
20743;SDS011;56303;52.160;-0.428;2023-02-12T01:17:50;10.37;;;9.33;;
20743;SDS011;56303;52.160;-0.428;2023-02-12T01:20:19;9.37;;;8.33;;
20743;SDS011;56303;52.160;-0.428;2023-02-12T01:22:47;9.17;;;7.53;;
20743;SDS011;56303;52.160;-0.428;2023-02-12T01:25:14;9.27;;;8.33;;
20743;SDS011;56303;52.160;-0.428;2023-02-12T01:27:45;10.57;;;8.53;;
20743;SDS011;56303;52.160;-0.428;2023-02-12T01:30:12;10.30;;;8.03;;
20743;SDS011;56303;52.160;-0.428;2023-02-12T01:32:40;8.80;;;7.90;;
20743;SDS011;56303;52.160;-0.428;2023-02-12T01:35:07;11.50;;;10.40;;
20743;SDS011;56303;52.160;-0.428;2023-02-12T01:37:36;10.90;;;9.80;;
20743;SDS011;56303;52.160;-0.428;2023-02-12T01:40:04;11.33;;;10.20;;
20743;SDS011;56303;52.160;-0.428;2023-02-12T01:42:33;10.80;;;9.70;;
20743;SDS011;56303;52.160;-0.428;2023-02-12T01:45:17;12.10;;;10.03;;
20743;SDS011;56303;52.160;-0.428;2023-02-12T01:48:01;9.77;;;8.33;;
20743;SDS011;56303;52.160;-0.428;2023-02-12T01:50:28;10.80;;;9.00;;
20743;SDS011;56303;52.160;-0.428;2023-02-12T01:52:55;10.53;;;9.53;;
20743;SDS011;56303;52.160;-0.428;2023-02-12T01:55:24;12.00;;;10.30;;
20743;SDS011;56303;52.160;-0.428;2023-02-12T01:57:50;10.57;;;9.47;;
20743;SDS011;56303;52.160;-0.428;2023-02-12T02:00:19;11.53;;;9.67;;
20743;SDS011;56303;52.160;-0.428;2023-02-12T02:02:50;11.20;;;10.00;;
20743;SDS011;56303;52.160;-0.428;2023-02-12T02:05:32;10.07;;;8.50;;
20743;SDS011;56303;52.160;-0.428;2023-02-12T02:08:23;12.37;;;10.47;;
20743;SDS011;56303;52.160;-0.428;2023-02-12T02:10:50;11.43;;;9.67;;
20743;SDS011;56303;52.160;-0.428;2023-02-12T02:13:17;12.17;;;10.40;;
20743;SDS011;56303;52.160;-0.428;2023-02-12T02:16:05;10.67;;;9.67;;
20743;SDS011;56303;52.160;-0.428;2023-02-12T02:18:52;10.20;;;9.20;;
20743;SDS011;56303;52.160;-0.428;2023-02-12T02:24:20;11.90;;;10.70;;
20743;SDS011;56303;52.160;-0.428;2023-02-12T02:27:22;12.53;;;10.57;;
20743;SDS011;56303;52.160;-0.428;2023-02-12T02:33:18;11.97;;;10.70;;
20743;SDS011;56303;52.160;-0.428;2023-02-12T02:36:44;11.60;;;9.93;;
20743;SDS011;56303;52.160;-0.428;2023-02-12T02:39:27;12.57;;;11.23;;
20743;SDS011;56303;52.160;-0.428;2023-02-12T02:41:56;12.07;;;10.67;;
20743;SDS011;56303;52.160;-0.428;2023-02-12T02:44:58;10.80;;;9.63;;
20743;SDS011;56303;52.160;-0.428;2023-02-12T02:47:40;9.70;;;8.70;;
20743;SDS011;56303;52.160;-0.428;2023-02-12T02:50:12;13.03;;;9.47;;
20743;SDS011;56303;52.160;-0.428;2023-02-12T02:52:51;11.70;;;10.03;;
20743;SDS011;56303;52.160;-0.428;2023-02-12T02:55:23;14.03;;;11.43;;
20743;SDS011;56303;52.160;-0.428;2023-02-12T02:57:55;13.23;;;10.40;;
20743;SDS011;56303;52.160;-0.428;2023-02-12T03:00:35;13.60;;;12.03;;
20743;SDS011;56303;52.160;-0.428;2023-02-12T03:03:07;14.50;;;12.53;;
20743;SDS011;56303;52.160;-0.428;2023-02-12T03:05:46;13.07;;;11.60;;
20743;SDS011;56303;52.160;-0.428;2023-02-12T03:08:18;12.63;;;11.30;;
20743;SDS011;56303;52.160;-0.428;2023-02-12T03:10:52;13.00;;;11.40;;
20743;SDS011;56303;52.160;-0.428;2023-02-12T03:13:31;11.57;;;10.37;;
20743;SDS011;56303;52.160;-0.428;2023-02-12T03:16:09;11.17;;;9.97;;
20743;SDS011;56303;52.160;-0.428;2023-02-12T03:19:10;11.77;;;10.43;;
20743;SDS011;56303;52.160;-0.428;2023-02-12T03:21:44;11.70;;;10.50;;
20743;SDS011;56303;52.160;-0.428;2023-02-12T03:24:23;12.17;;;10.97;;
20743;SDS011;56303;52.160;-0.428;2023-02-12T03:29:56;13.50;;;12.10;;
20743;SDS011;56303;52.160;-0.428;2023-02-12T03:35:00;13.43;;;11.77;;
20743;SDS011;56303;52.160;-0.428;2023-02-12T03:38:20;11.57;;;9.90;;
20743;SDS011;56303;52.160;-0.428;2023-02-12T03:40:20;12.30;;;10.87;;
20743;SDS011;56303;52.160;-0.428;2023-02-12T03:43:10;12.73;;;11.40;;
20743;SDS011;56303;52.160;-0.428;2023-02-12T03:45:48;12.90;;;11.60;;
20743;SDS011;56303;52.160;-0.428;2023-02-12T03:48:43;11.73;;;10.53;;
20743;SDS011;56303;52.160;-0.428;2023-02-12T03:53:46;13.63;;;12.23;;
20743;SDS011;56303;52.160;-0.428;2023-02-12T03:56:16;12.30;;;11.00;;
20743;SDS011;56303;52.160;-0.428;2023-02-12T03:58:47;12.87;;;10.67;;
20743;SDS011;56303;52.160;-0.428;2023-02-12T04:01:14;13.67;;;12.07;;
20743;SDS011;56303;52.160;-0.428;2023-02-12T04:03:41;13.40;;;11.70;;
20743;SDS011;56303;52.160;-0.428;2023-02-12T04:06:27;14.17;;;12.13;;
20743;SDS011;56303;52.160;-0.428;2023-02-12T04:08:57;14.30;;;12.00;;
20743;SDS011;56303;52.160;-0.428;2023-02-12T04:11:50;14.30;;;12.70;;
20743;SDS011;56303;52.160;-0.428;2023-02-12T04:14:36;12.47;;;10.83;;
20743;SDS011;56303;52.160;-0.428;2023-02-12T04:17:08;13.73;;;12.27;;
20743;SDS011;56303;52.160;-0.428;2023-02-12T04:22:35;13.90;;;12.50;;
20743;SDS011;56303;52.160;-0.428;2023-02-12T04:27:59;13.80;;;12.00;;
20743;SDS011;56303;52.160;-0.428;2023-02-12T04:31:16;13.27;;;11.87;;
20743;SDS011;56303;52.160;-0.428;2023-02-12T04:33:46;12.27;;;11.00;;
20743;SDS011;56303;52.160;-0.428;2023-02-12T04:36:25;13.37;;;11.97;;
20743;SDS011;56303;52.160;-0.428;2023-02-12T04:38:57;13.73;;;11.93;;
20743;SDS011;56303;52.160;-0.428;2023-02-12T04:41:34;13.13;;;11.73;;
20743;SDS011;56303;52.160;-0.428;2023-02-12T04:44:14;12.97;;;11.67;;
20743;SDS011;56303;52.160;-0.428;2023-02-12T04:46:48;13.83;;;12.07;;
20743;SDS011;56303;52.160;-0.428;2023-02-12T04:49:16;14.40;;;12.80;;
20743;SDS011;56303;52.160;-0.428;2023-02-12T04:51:45;13.23;;;11.73;;
20743;SDS011;56303;52.160;-0.428;2023-02-12T04:54:13;16.63;;;13.00;;
20743;SDS011;56303;52.160;-0.428;2023-02-12T04:56:42;15.30;;;13.53;;
20743;SDS011;56303;52.160;-0.428;2023-02-12T04:59:09;14.70;;;12.93;;
20743;SDS011;56303;52.160;-0.428;2023-02-12T05:01:37;16.33;;;13.40;;
20743;SDS011;56303;52.160;-0.428;2023-02-12T05:04:05;14.33;;;12.87;;
20743;SDS011;56303;52.160;-0.428;2023-02-12T05:06:33;15.10;;;13.37;;
20743;SDS011;56303;52.160;-0.428;2023-02-12T05:09:02;15.00;;;13.50;;
20743;SDS011;56303;52.160;-0.428;2023-02-12T05:11:29;15.83;;;13.70;;
20743;SDS011;56303;52.160;-0.428;2023-02-12T05:13:56;15.77;;;13.53;;
20743;SDS011;56303;52.160;-0.428;2023-02-12T05:16:24;16.83;;;13.87;;
20743;SDS011;56303;52.160;-0.428;2023-02-12T05:18:51;15.43;;;13.77;;
20743;SDS011;56303;52.160;-0.428;2023-02-12T05:21:18;16.47;;;13.07;;
20743;SDS011;56303;52.160;-0.428;2023-02-12T05:23:45;14.53;;;13.03;;
20743;SDS011;56303;52.160;-0.428;2023-02-12T05:26:12;14.43;;;12.93;;
20743;SDS011;56303;52.160;-0.428;2023-02-12T05:28:41;17.00;;;13.40;;
20743;SDS011;56303;52.160;-0.428;2023-02-12T05:31:08;14.77;;;13.17;;
20743;SDS011;56303;52.160;-0.428;2023-02-12T05:33:40;14.50;;;13.10;;
20743;SDS011;56303;52.160;-0.428;2023-02-12T05:36:09;17.43;;;14.27;;
20743;SDS011;56303;52.160;-0.428;2023-02-12T05:38:37;15.43;;;13.37;;
20743;SDS011;56303;52.160;-0.428;2023-02-12T05:41:06;15.30;;;13.70;;
20743;SDS011;56303;52.160;-0.428;2023-02-12T05:43:35;15.67;;;13.87;;
20743;SDS011;56303;52.160;-0.428;2023-02-12T05:46:03;15.13;;;13.57;;
20743;SDS011;56303;52.160;-0.428;2023-02-12T05:48:31;14.13;;;12.17;;
20743;SDS011;56303;52.160;-0.428;2023-02-12T05:51:18;15.73;;;13.63;;
20743;SDS011;56303;52.160;-0.428;2023-02-12T05:53:48;21.37;;;13.87;;
20743;SDS011;56303;52.160;-0.428;2023-02-12T05:56:27;15.13;;;13.20;;
20743;SDS011;56303;52.160;-0.428;2023-02-12T05:59:05;15.60;;;13.87;;
20743;SDS011;56303;52.160;-0.428;2023-02-12T06:01:34;13.73;;;12.23;;
20743;SDS011;56303;52.160;-0.428;2023-02-12T06:04:04;15.60;;;13.93;;
20743;SDS011;56303;52.160;-0.428;2023-02-12T06:06:33;14.17;;;12.43;;
20743;SDS011;56303;52.160;-0.428;2023-02-12T06:09:00;16.50;;;13.50;;
20743;SDS011;56303;52.160;-0.428;2023-02-12T06:11:28;15.40;;;13.90;;
20743;SDS011;56303;52.160;-0.428;2023-02-12T06:13:54;16.50;;;14.50;;
20743;SDS011;56303;52.160;-0.428;2023-02-12T06:18:50;16.60;;;14.23;;
20743;SDS011;56303;52.160;-0.428;2023-02-12T06:21:20;16.63;;;13.60;;
20743;SDS011;56303;52.160;-0.428;2023-02-12T06:23:50;15.63;;;13.47;;
20743;SDS011;56303;52.160;-0.428;2023-02-12T06:26:18;14.80;;;13.27;;
20743;SDS011;56303;52.160;-0.428;2023-02-12T06:28:46;15.63;;;14.03;;
20743;SDS011;56303;52.160;-0.428;2023-02-12T06:31:23;16.27;;;13.73;;
20743;SDS011;56303;52.160;-0.428;2023-02-12T06:33:53;15.87;;;14.27;;
20743;SDS011;56303;52.160;-0.428;2023-02-12T06:36:21;16.40;;;14.70;;
20743;SDS011;56303;52.160;-0.428;2023-02-12T06:38:48;17.53;;;14.87;;
20743;SDS011;56303;52.160;-0.428;2023-02-12T06:41:16;17.37;;;15.57;;
20743;SDS011;56303;52.160;-0.428;2023-02-12T06:43:43;15.77;;;14.17;;
20743;SDS011;56303;52.160;-0.428;2023-02-12T06:46:10;16.50;;;14.70;;
20743;SDS011;56303;52.160;-0.428;2023-02-12T06:48:38;16.73;;;14.93;;
20743;SDS011;56303;52.160;-0.428;2023-02-12T06:51:12;18.17;;;16.20;;
20743;SDS011;56303;52.160;-0.428;2023-02-12T06:53:41;16.60;;;14.77;;
20743;SDS011;56303;52.160;-0.428;2023-02-12T06:56:09;16.70;;;13.90;;
20743;SDS011;56303;52.160;-0.428;2023-02-12T06:58:39;16.03;;;14.40;;
20743;SDS011;56303;52.160;-0.428;2023-02-12T07:01:17;15.97;;;14.43;;
20743;SDS011;56303;52.160;-0.428;2023-02-12T07:03:47;14.90;;;13.50;;
20743;SDS011;56303;52.160;-0.428;2023-02-12T07:06:16;16.23;;;14.53;;
20743;SDS011;56303;52.160;-0.428;2023-02-12T07:08:43;15.90;;;14.10;;
20743;SDS011;56303;52.160;-0.428;2023-02-12T07:11:11;15.43;;;13.83;;
20743;SDS011;56303;52.160;-0.428;2023-02-12T07:13:41;16.00;;;14.30;;
20743;SDS011;56303;52.160;-0.428;2023-02-12T07:16:13;18.00;;;14.40;;
20743;SDS011;56303;52.160;-0.428;2023-02-12T07:18:42;16.83;;;14.57;;
20743;SDS011;56303;52.160;-0.428;2023-02-12T07:21:12;15.83;;;13.13;;
20743;SDS011;56303;52.160;-0.428;2023-02-12T07:23:40;14.43;;;12.60;;
20743;SDS011;56303;52.160;-0.428;2023-02-12T07:26:11;14.90;;;13.30;;
20743;SDS011;56303;52.160;-0.428;2023-02-12T07:28:38;15.10;;;13.60;;
20743;SDS011;56303;52.160;-0.428;2023-02-12T07:33:38;15.00;;;13.43;;
20743;SDS011;56303;52.160;-0.428;2023-02-12T07:36:07;14.40;;;12.87;;
20743;SDS011;56303;52.160;-0.428;2023-02-12T07:38:36;13.73;;;12.40;;
20743;SDS011;56303;52.160;-0.428;2023-02-12T07:41:06;15.57;;;13.97;;
20743;SDS011;56303;52.160;-0.428;2023-02-12T07:43:38;15.30;;;13.70;;
20743;SDS011;56303;52.160;-0.428;2023-02-12T07:46:07;15.50;;;13.90;;
20743;SDS011;56303;52.160;-0.428;2023-02-12T07:48:42;14.83;;;13.23;;
20743;SDS011;56303;52.160;-0.428;2023-02-12T07:51:11;14.97;;;13.53;;
20743;SDS011;56303;52.160;-0.428;2023-02-12T07:53:39;15.00;;;13.43;;
20743;SDS011;56303;52.160;-0.428;2023-02-12T07:56:11;14.40;;;12.90;;
20743;SDS011;56303;52.160;-0.428;2023-02-12T07:58:38;14.80;;;12.63;;
20743;SDS011;56303;52.160;-0.428;2023-02-12T08:01:19;13.93;;;12.50;;
20743;SDS011;56303;52.160;-0.428;2023-02-12T08:03:48;15.00;;;13.43;;
20743;SDS011;56303;52.160;-0.428;2023-02-12T08:06:19;13.83;;;12.03;;
20743;SDS011;56303;52.160;-0.428;2023-02-12T08:08:51;13.13;;;11.83;;
20743;SDS011;56303;52.160;-0.428;2023-02-12T08:11:22;15.20;;;13.60;;
20743;SDS011;56303;52.160;-0.428;2023-02-12T08:13:50;13.77;;;12.13;;
20743;SDS011;56303;52.160;-0.428;2023-02-12T08:16:18;14.57;;;13.13;;
20743;SDS011;56303;52.160;-0.428;2023-02-12T08:18:49;15.03;;;13.37;;
20743;SDS011;56303;52.160;-0.428;2023-02-12T08:21:19;13.30;;;12.03;;
20743;SDS011;56303;52.160;-0.428;2023-02-12T08:23:47;14.07;;;12.67;;
20743;SDS011;56303;52.160;-0.428;2023-02-12T08:26:20;14.40;;;12.83;;
20743;SDS011;56303;52.160;-0.428;2023-02-12T08:28:51;13.40;;;12.07;;
20743;SDS011;56303;52.160;-0.428;2023-02-12T08:31:21;13.97;;;12.03;;
20743;SDS011;56303;52.160;-0.428;2023-02-12T08:33:50;12.70;;;11.40;;
20743;SDS011;56303;52.160;-0.428;2023-02-12T08:36:19;14.33;;;12.70;;
20743;SDS011;56303;52.160;-0.428;2023-02-12T08:38:48;13.03;;;11.73;;
20743;SDS011;56303;52.160;-0.428;2023-02-12T08:41:16;13.50;;;12.20;;
20743;SDS011;56303;52.160;-0.428;2023-02-12T08:43:54;13.23;;;11.93;;
20743;SDS011;56303;52.160;-0.428;2023-02-12T08:46:23;14.53;;;12.27;;
20743;SDS011;56303;52.160;-0.428;2023-02-12T08:48:56;13.63;;;12.23;;
20743;SDS011;56303;52.160;-0.428;2023-02-12T08:51:26;14.83;;;13.23;;
20743;SDS011;56303;52.160;-0.428;2023-02-12T08:54:02;15.57;;;12.70;;
20743;SDS011;56303;52.160;-0.428;2023-02-12T08:56:31;13.17;;;11.87;;
20743;SDS011;56303;52.160;-0.428;2023-02-12T08:59:00;12.87;;;11.57;;
20743;SDS011;56303;52.160;-0.428;2023-02-12T09:01:30;13.63;;;12.23;;
20743;SDS011;56303;52.160;-0.428;2023-02-12T09:03:59;15.60;;;13.20;;
20743;SDS011;56303;52.160;-0.428;2023-02-12T09:06:48;13.27;;;11.87;;
20743;SDS011;56303;52.160;-0.428;2023-02-12T09:09:27;13.80;;;11.27;;
20743;SDS011;56303;52.160;-0.428;2023-02-12T09:11:54;15.03;;;13.47;;
20743;SDS011;56303;52.160;-0.428;2023-02-12T09:14:21;13.90;;;12.37;;
20743;SDS011;56303;52.160;-0.428;2023-02-12T09:16:50;13.67;;;12.27;;
20743;SDS011;56303;52.160;-0.428;2023-02-12T09:19:18;14.30;;;12.80;;
20743;SDS011;56303;52.160;-0.428;2023-02-12T09:21:49;15.13;;;13.03;;
20743;SDS011;56303;52.160;-0.428;2023-02-12T09:24:20;14.43;;;12.53;;
20743;SDS011;56303;52.160;-0.428;2023-02-12T09:26:47;13.80;;;12.50;;
20743;SDS011;56303;52.160;-0.428;2023-02-12T09:29:15;14.77;;;13.27;;
20743;SDS011;56303;52.160;-0.428;2023-02-12T09:31:41;15.00;;;13.13;;
20743;SDS011;56303;52.160;-0.428;2023-02-12T09:34:08;14.60;;;13.00;;
20743;SDS011;56303;52.160;-0.428;2023-02-12T09:36:35;15.43;;;13.83;;
20743;SDS011;56303;52.160;-0.428;2023-02-12T09:39:02;16.57;;;14.97;;
20743;SDS011;56303;52.160;-0.428;2023-02-12T09:46:51;14.83;;;13.43;;
20743;SDS011;56303;52.160;-0.428;2023-02-12T09:52:18;17.47;;;15.43;;
20743;SDS011;56303;52.160;-0.428;2023-02-12T09:54:47;23.77;;;19.37;;
20743;SDS011;56303;52.160;-0.428;2023-02-12T09:57:17;18.07;;;16.07;;
20743;SDS011;56303;52.160;-0.428;2023-02-12T09:59:50;16.83;;;15.20;;
20743;SDS011;56303;52.160;-0.428;2023-02-12T10:02:21;16.13;;;14.50;;
20743;SDS011;56303;52.160;-0.428;2023-02-12T10:04:50;16.50;;;14.70;;
20743;SDS011;56303;52.160;-0.428;2023-02-12T10:22:25;26.43;;;23.53;;
20743;SDS011;56303;52.160;-0.428;2023-02-12T10:25:23;23.43;;;21.13;;
20743;SDS011;56303;52.160;-0.428;2023-02-12T10:27:56;21.63;;;19.40;;
20743;SDS011;56303;52.160;-0.428;2023-02-12T10:33:18;19.97;;;17.90;;
20743;SDS011;56303;52.160;-0.428;2023-02-12T10:36:26;22.03;;;19.10;;
20743;SDS011;56303;52.160;-0.428;2023-02-12T10:38:49;25.53;;;22.93;;
20743;SDS011;56303;52.160;-0.428;2023-02-12T10:41:20;25.27;;;22.70;;
20743;SDS011;56303;52.160;-0.428;2023-02-12T10:43:51;24.53;;;21.93;;
20743;SDS011;56303;52.160;-0.428;2023-02-12T10:46:18;21.53;;;19.40;;
20743;SDS011;56303;52.160;-0.428;2023-02-12T10:48:48;20.73;;;18.63;;
20743;SDS011;56303;52.160;-0.428;2023-02-12T10:51:33;22.27;;;19.93;;
20743;SDS011;56303;52.160;-0.428;2023-02-12T10:54:43;22.90;;;20.60;;
20743;SDS011;56303;52.160;-0.428;2023-02-12T10:57:18;23.77;;;21.30;;
20743;SDS011;56303;52.160;-0.428;2023-02-12T10:59:48;23.33;;;20.93;;
20743;SDS011;56303;52.160;-0.428;2023-02-12T11:04:52;25.27;;;22.57;;
20743;SDS011;56303;52.160;-0.428;2023-02-12T11:07:21;22.77;;;20.57;;
20743;SDS011;56303;52.160;-0.428;2023-02-12T11:09:49;23.40;;;21.00;;
20743;SDS011;56303;52.160;-0.428;2023-02-12T11:12:19;22.23;;;20.03;;
20743;SDS011;56303;52.160;-0.428;2023-02-12T11:14:54;22.27;;;20.07;;
20743;SDS011;56303;52.160;-0.428;2023-02-12T11:17:25;22.00;;;19.77;;
20743;SDS011;56303;52.160;-0.428;2023-02-12T11:20:06;22.50;;;20.20;;
20743;SDS011;56303;52.160;-0.428;2023-02-12T11:25:21;22.60;;;20.37;;
20743;SDS011;56303;52.160;-0.428;2023-02-12T11:30:29;21.53;;;19.23;;
20743;SDS011;56303;52.160;-0.428;2023-02-12T11:38:24;22.00;;;19.90;;
20743;SDS011;56303;52.160;-0.428;2023-02-12T11:41:05;23.67;;;21.07;;
20743;SDS011;56303;52.160;-0.428;2023-02-12T11:43:53;23.63;;;19.37;;
20743;SDS011;56303;52.160;-0.428;2023-02-12T11:46:22;21.07;;;18.87;;
20743;SDS011;56303;52.160;-0.428;2023-02-12T11:48:52;20.00;;;17.77;;
20743;SDS011;56303;52.160;-0.428;2023-02-12T11:51:23;18.00;;;16.13;;
20743;SDS011;56303;52.160;-0.428;2023-02-12T11:53:56;14.83;;;13.00;;
20743;SDS011;56303;52.160;-0.428;2023-02-12T11:56:38;17.63;;;15.03;;
20743;SDS011;56303;52.160;-0.428;2023-02-12T11:59:20;12.60;;;11.30;;
20743;SDS011;56303;52.160;-0.428;2023-02-12T12:02:08;13.33;;;12.03;;
20743;SDS011;56303;52.160;-0.428;2023-02-12T12:04:39;13.80;;;11.97;;
20743;SDS011;56303;52.160;-0.428;2023-02-12T12:07:22;12.23;;;10.03;;
20743;SDS011;56303;52.160;-0.428;2023-02-12T12:10:06;11.97;;;10.40;;
20743;SDS011;56303;52.160;-0.428;2023-02-12T12:12:57;11.00;;;9.83;;
20743;SDS011;56303;52.160;-0.428;2023-02-12T12:15:35;10.13;;;9.03;;
20743;SDS011;56303;52.160;-0.428;2023-02-12T12:18:25;12.30;;;9.10;;
20743;SDS011;56303;52.160;-0.428;2023-02-12T12:24:37;9.43;;;6.93;;
20743;SDS011;56303;52.160;-0.428;2023-02-12T12:27:14;9.13;;;6.40;;
20743;SDS011;56303;52.160;-0.428;2023-02-12T12:30:07;5.83;;;4.30;;
20743;SDS011;56303;52.160;-0.428;2023-02-12T12:32:43;6.93;;;4.10;;
20743;SDS011;56303;52.160;-0.428;2023-02-12T12:35:15;5.03;;;3.00;;
20743;SDS011;56303;52.160;-0.428;2023-02-12T12:40:49;7.53;;;3.10;;
20743;SDS011;56303;52.160;-0.428;2023-02-12T12:46:22;6.20;;;2.60;;
20743;SDS011;56303;52.160;-0.428;2023-02-12T13:02:56;4.87;;;2.63;;
20743;SDS011;56303;52.160;-0.428;2023-02-12T13:05:53;2.07;;;1.87;;
20743;SDS011;56303;52.160;-0.428;2023-02-12T13:08:57;2.90;;;2.20;;
20743;SDS011;56303;52.160;-0.428;2023-02-12T13:19:46;3.83;;;2.57;;
20743;SDS011;56303;52.160;-0.428;2023-02-12T13:22:24;3.97;;;2.70;;
20743;SDS011;56303;52.160;-0.428;2023-02-12T13:28:18;4.93;;;3.20;;
20743;SDS011;56303;52.160;-0.428;2023-02-12T13:31:12;4.13;;;3.00;;
20743;SDS011;56303;52.160;-0.428;2023-02-12T13:34:00;4.23;;;3.27;;
20743;SDS011;56303;52.160;-0.428;2023-02-12T13:36:29;3.63;;;2.83;;
20743;SDS011;56303;52.160;-0.428;2023-02-12T13:41:24;4.40;;;3.10;;
20743;SDS011;56303;52.160;-0.428;2023-02-12T13:43:55;4.00;;;3.00;;
20743;SDS011;56303;52.160;-0.428;2023-02-12T13:51:45;2.53;;;1.90;;
20743;SDS011;56303;52.160;-0.428;2023-02-12T13:57:02;2.80;;;2.00;;
20743;SDS011;56303;52.160;-0.428;2023-02-12T14:04:40;3.27;;;2.30;;
20743;SDS011;56303;52.160;-0.428;2023-02-12T14:07:12;3.20;;;2.43;;
20743;SDS011;56303;52.160;-0.428;2023-02-12T14:09:41;4.37;;;2.43;;
20743;SDS011;56303;52.160;-0.428;2023-02-12T14:15:07;5.20;;;2.77;;
20743;SDS011;56303;52.160;-0.428;2023-02-12T14:27:57;3.27;;;1.90;;
20743;SDS011;56303;52.160;-0.428;2023-02-12T14:30:43;2.50;;;1.90;;
20743;SDS011;56303;52.160;-0.428;2023-02-12T14:33:21;3.20;;;2.03;;
20743;SDS011;56303;52.160;-0.428;2023-02-12T14:41:23;2.70;;;1.90;;
20743;SDS011;56303;52.160;-0.428;2023-02-12T14:46:48;2.90;;;2.30;;
20743;SDS011;56303;52.160;-0.428;2023-02-12T15:00:03;4.83;;;2.63;;
20743;SDS011;56303;52.160;-0.428;2023-02-12T15:06:22;4.17;;;3.13;;
20743;SDS011;56303;52.160;-0.428;2023-02-12T15:08:50;4.57;;;3.37;;
20743;SDS011;56303;52.160;-0.428;2023-02-12T15:11:20;6.20;;;4.20;;
20743;SDS011;56303;52.160;-0.428;2023-02-12T15:14:13;5.73;;;4.57;;
20743;SDS011;56303;52.160;-0.428;2023-02-12T15:19:19;5.10;;;3.87;;
20743;SDS011;56303;52.160;-0.428;2023-02-12T15:21:52;5.67;;;3.50;;
20743;SDS011;56303;52.160;-0.428;2023-02-12T15:24:23;4.30;;;3.13;;
20743;SDS011;56303;52.160;-0.428;2023-02-12T15:26:53;4.67;;;3.43;;
20743;SDS011;56303;52.160;-0.428;2023-02-12T15:29:30;6.90;;;3.67;;
20743;SDS011;56303;52.160;-0.428;2023-02-12T15:32:22;5.90;;;4.00;;
20743;SDS011;56303;52.160;-0.428;2023-02-12T15:34:52;4.83;;;3.50;;
20743;SDS011;56303;52.160;-0.428;2023-02-12T15:37:29;6.93;;;4.07;;
20743;SDS011;56303;52.160;-0.428;2023-02-12T15:40:00;5.10;;;3.87;;
20743;SDS011;56303;52.160;-0.428;2023-02-12T15:45:06;4.57;;;3.33;;
20743;SDS011;56303;52.160;-0.428;2023-02-12T15:47:39;5.57;;;3.83;;
20743;SDS011;56303;52.160;-0.428;2023-02-12T15:50:15;5.20;;;3.10;;
20743;SDS011;56303;52.160;-0.428;2023-02-12T15:52:44;6.80;;;3.50;;
20743;SDS011;56303;52.160;-0.428;2023-02-12T15:55:14;4.47;;;2.87;;
20743;SDS011;56303;52.160;-0.428;2023-02-12T15:57:48;4.37;;;3.13;;
20743;SDS011;56303;52.160;-0.428;2023-02-12T16:00:24;3.20;;;2.73;;
20743;SDS011;56303;52.160;-0.428;2023-02-12T16:02:57;5.20;;;2.70;;
20743;SDS011;56303;52.160;-0.428;2023-02-12T16:05:26;3.80;;;2.67;;
20743;SDS011;56303;52.160;-0.428;2023-02-12T16:07:55;5.00;;;3.07;;
20743;SDS011;56303;52.160;-0.428;2023-02-12T16:10:23;4.33;;;3.30;;
20743;SDS011;56303;52.160;-0.428;2023-02-12T16:12:52;4.50;;;3.17;;
20743;SDS011;56303;52.160;-0.428;2023-02-12T16:15:25;5.47;;;3.60;;
20743;SDS011;56303;52.160;-0.428;2023-02-12T16:17:57;4.03;;;3.20;;
20743;SDS011;56303;52.160;-0.428;2023-02-12T16:20:26;5.00;;;3.40;;
20743;SDS011;56303;52.160;-0.428;2023-02-12T16:22:54;5.33;;;3.50;;
20743;SDS011;56303;52.160;-0.428;2023-02-12T16:28:04;5.20;;;3.63;;
20743;SDS011;56303;52.160;-0.428;2023-02-12T16:30:34;4.37;;;3.37;;
20743;SDS011;56303;52.160;-0.428;2023-02-12T16:36:30;7.33;;;3.53;;
20743;SDS011;56303;52.160;-0.428;2023-02-12T16:38:58;4.67;;;3.27;;
20743;SDS011;56303;52.160;-0.428;2023-02-12T16:41:34;4.40;;;3.50;;
20743;SDS011;56303;52.160;-0.428;2023-02-12T16:44:20;5.00;;;3.40;;
20743;SDS011;56303;52.160;-0.428;2023-02-12T16:46:52;5.13;;;3.27;;
20743;SDS011;56303;52.160;-0.428;2023-02-12T16:49:22;7.20;;;3.30;;
20743;SDS011;56303;52.160;-0.428;2023-02-12T16:51:51;4.40;;;3.17;;
20743;SDS011;56303;52.160;-0.428;2023-02-12T16:54:32;4.10;;;2.97;;
20743;SDS011;56303;52.160;-0.428;2023-02-12T16:57:00;4.37;;;2.97;;
20743;SDS011;56303;52.160;-0.428;2023-02-12T16:59:28;5.40;;;3.33;;
20743;SDS011;56303;52.160;-0.428;2023-02-12T17:02:02;5.63;;;4.03;;
20743;SDS011;56303;52.160;-0.428;2023-02-12T17:04:35;5.27;;;3.73;;
20743;SDS011;56303;52.160;-0.428;2023-02-12T17:07:04;6.80;;;4.53;;
20743;SDS011;56303;52.160;-0.428;2023-02-12T17:09:49;8.73;;;5.93;;
20743;SDS011;56303;52.160;-0.428;2023-02-12T17:12:16;6.40;;;5.07;;
20743;SDS011;56303;52.160;-0.428;2023-02-12T17:14:44;5.63;;;4.20;;
20743;SDS011;56303;52.160;-0.428;2023-02-12T17:17:11;5.20;;;3.87;;
20743;SDS011;56303;52.160;-0.428;2023-02-12T17:19:38;6.00;;;4.40;;
20743;SDS011;56303;52.160;-0.428;2023-02-12T17:22:13;5.20;;;3.87;;
20743;SDS011;56303;52.160;-0.428;2023-02-12T17:24:47;5.30;;;3.90;;
20743;SDS011;56303;52.160;-0.428;2023-02-12T17:27:17;6.20;;;3.70;;
20743;SDS011;56303;52.160;-0.428;2023-02-12T17:29:44;7.43;;;3.90;;
20743;SDS011;56303;52.160;-0.428;2023-02-12T17:32:11;4.10;;;3.03;;
20743;SDS011;56303;52.160;-0.428;2023-02-12T17:34:38;6.87;;;4.37;;